Time;durP1;ratioP1;P1;durP2;ratioP2;P2;SDS_P1;SDS_P2;PMS_P1;PMS_P2;Temp;Humidity;BMP_temperature;BMP_pressure;BME280_temperature;BME280_humidity;BME280_pressure;Samples;Min_cycle;Max_cycle;Signal;HPM_P1;HPM_P2
2023/08/06 00:01:12;;;;;;;;;;;21.10;90.50;;;;;;5096525;28;20370;-72
2023/08/06 00:03:37;;;;;;;;;;;21.10;90.50;;;;;;5096793;28;19917;-73
2023/08/06 00:06:06;;;;;;;;;;;21.10;90.50;;;;;;5096308;28;19969;-72
2023/08/06 00:08:32;;;;;;;;;;;21.10;90.50;;;;;;5096345;28;20325;-72
2023/08/06 00:10:57;;;;;;;;;;;21.10;90.50;;;;;;5096310;28;20003;-71
2023/08/06 00:13:22;;;;;;;;;;;21.10;90.50;;;;;;5096243;28;19912;-72
2023/08/06 00:15:48;;;;;;;;;;;21.10;90.50;;;;;;5095900;28;19995;-71
2023/08/06 00:18:13;;;;;;;;;;;21.10;90.50;;;;;;5095830;28;19915;-73
2023/08/06 00:20:40;;;;;;;;;;;21.10;90.50;;;;;;5096404;28;19912;-73
2023/08/06 00:23:06;;;;;;;;;;;21.00;90.50;;;;;;5095768;28;19915;-73
2023/08/06 00:25:31;;;;;;;;;;;21.10;90.50;;;;;;5095712;28;20267;-72
2023/08/06 00:27:56;;;;;;;;;;;21.00;90.50;;;;;;5096002;28;19908;-73
2023/08/06 00:30:22;;;;;;;;;;;21.00;90.50;;;;;;5095894;28;19996;-73
2023/08/06 00:32:47;;;;;;;;;;;21.00;90.50;;;;;;5095512;28;19912;-73
2023/08/06 00:35:13;;;;;;;;;;;21.00;90.50;;;;;;5096092;28;19966;-73
2023/08/06 00:37:39;;;;;;;;;;;21.00;90.50;;;;;;5095522;28;19958;-71
2023/08/06 00:40:05;;;;;;;;;;;21.10;90.50;;;;;;5095459;28;19916;-73
2023/08/06 00:42:31;;;;;;;;;;;21.00;90.50;;;;;;5095772;28;19915;-73
2023/08/06 00:44:56;;;;;;;;;;;21.10;90.40;;;;;;5094857;28;19968;-72
2023/08/06 00:47:22;;;;;;;;;;;21.00;90.40;;;;;;5095585;28;19920;-70
2023/08/06 00:49:47;;;;;;;;;;;21.00;90.40;;;;;;5095643;28;19977;-71
2023/08/06 00:52:13;;;;;;;;;;;21.10;90.40;;;;;;5095536;28;19913;-72
2023/08/06 00:54:39;;;;;;;;;;;21.00;90.40;;;;;;5095222;28;20411;-72
2023/08/06 00:57:06;;;;;;;;;;;21.00;90.40;;;;;;5095512;28;20002;-72
2023/08/06 00:59:32;;;;;;;;;;;21.00;90.40;;;;;;5095113;28;19912;-72
2023/08/06 01:01:57;;;;;;;;;;;21.00;90.40;;;;;;5095282;28;19915;-72
2023/08/06 01:04:23;;;;;;;;;;;21.00;90.40;;;;;;5095414;28;19974;-72
2023/08/06 01:06:52;;;;;;;;;;;21.00;90.40;;;;;;5094821;28;19966;-72
2023/08/06 01:09:23;;;;;;;;;;;21.00;90.50;;;;;;5095179;28;20312;-72
2023/08/06 01:12:16;;;;;;;;;;;21.00;90.40;;;;;;5095093;28;19916;-72
2023/08/06 01:14:42;;;;;;;;;;;21.00;90.40;;;;;;5094867;28;20351;-72
2023/08/06 01:17:07;;;;;;;;;;;21.00;90.50;;;;;;5095019;28;20409;-72
2023/08/06 01:19:33;;;;;;;;;;;21.00;90.50;;;;;;5094869;28;20270;-72
2023/08/06 01:21:58;;;;;;;;;;;21.00;90.50;;;;;;5094735;28;20335;-71
2023/08/06 01:24:24;;;;;;;;;;;21.00;90.40;;;;;;5095066;28;19915;-72
2023/08/06 01:27:03;;;;;;;;;;;21.00;90.40;;;;;;5094968;28;19947;-72
2023/08/06 01:29:32;;;;;;;;;;;21.00;90.40;;;;;;5094770;28;19912;-70
2023/08/06 01:31:58;;;;;;;;;;;21.00;90.40;;;;;;5094759;28;19995;-72
2023/08/06 01:34:25;;;;;;;;;;;21.00;90.40;;;;;;5093714;28;19958;-72
2023/08/06 01:36:51;;;;;;;;;;;21.00;90.40;;;;;;5094528;28;20274;-72
2023/08/06 01:39:17;;;;;;;;;;;21.00;90.40;;;;;;5094821;28;19961;-72
2023/08/06 01:41:42;;;;;;;;;;;21.00;90.40;;;;;;5094730;28;20231;-72
2023/08/06 01:44:07;;;;;;;;;;;21.00;90.40;;;;;;5094138;28;19908;-71
2023/08/06 01:46:33;;;;;;;;;;;21.00;90.40;;;;;;5094802;28;19908;-72
2023/08/06 01:48:58;;;;;;;;;;;21.00;90.40;;;;;;5094353;28;19908;-72
2023/08/06 01:51:24;;;;;;;;;;;21.00;90.40;;;;;;5094525;28;19909;-72
2023/08/06 01:53:49;;;;;;;;;;;21.00;90.40;;;;;;5094174;28;19959;-72
2023/08/06 01:56:15;;;;;;;;;;;21.00;90.40;;;;;;5094257;28;19916;-72
2023/08/06 01:58:40;;;;;;;;;;;21.00;90.40;;;;;;5093667;28;20386;-72
2023/08/06 02:01:06;;;;;;;;;;;21.00;90.40;;;;;;5093151;28;19952;-72
2023/08/06 02:03:31;;;;;;;;;;;21.00;90.40;;;;;;5094399;28;19912;-72
2023/08/06 02:05:57;;;;;;;;;;;21.00;90.40;;;;;;5094384;28;20255;-72
2023/08/06 02:08:22;;;;;;;;;;;21.00;90.40;;;;;;5094306;28;19994;-72
2023/08/06 02:10:48;;;;;;;;;;;21.00;90.40;;;;;;5094616;28;19908;-72
2023/08/06 02:13:13;;;;;;;;;;;21.00;90.40;;;;;;5093892;28;20406;-72
2023/08/06 02:15:43;;;;;;;;;;;21.00;90.40;;;;;;5094137;28;20019;-72
2023/08/06 02:18:08;;;;;;;;;;;21.00;90.40;;;;;;5093103;28;19908;-72
2023/08/06 02:20:34;;;;;;;;;;;21.00;90.40;;;;;;5094270;28;20274;-72
2023/08/06 02:22:59;;;;;;;;;;;21.00;90.40;;;;;;5094195;28;19965;-72
2023/08/06 02:25:25;;;;;;;;;;;21.00;90.40;;;;;;5094175;28;19965;-72
2023/08/06 02:27:50;;;;;;;;;;;21.00;90.40;;;;;;5094114;28;19908;-72
2023/08/06 02:30:16;;;;;;;;;;;21.00;90.40;;;;;;5093873;28;19912;-72
2023/08/06 02:32:41;;;;;;;;;;;20.90;90.40;;;;;;5094078;28;19919;-72
2023/08/06 02:35:07;;;;;;;;;;;21.00;90.40;;;;;;5093800;28;19958;-72
2023/08/06 02:37:35;;;;;;;;;;;21.00;90.60;;;;;;5093791;28;19908;-72
2023/08/06 02:40:01;;;;;;;;;;;20.90;90.40;;;;;;5093817;28;19908;-71
2023/08/06 02:42:27;;;;;;;;;;;20.90;90.40;;;;;;5093971;28;19916;-72
2023/08/06 02:44:55;;;;;;;;;;;20.90;90.40;;;;;;5093879;28;19972;-72
2023/08/06 02:47:20;;;;;;;;;;;20.90;90.30;;;;;;5093928;28;19957;-72
2023/08/06 02:49:46;;;;;;;;;;;20.90;90.40;;;;;;5093705;28;19908;-72
2023/08/06 02:52:12;;;;;;;;;;;20.90;90.40;;;;;;5093605;28;20434;-72
2023/08/06 02:54:37;;;;;;;;;;;20.90;90.30;;;;;;5093936;28;19973;-72
2023/08/06 02:57:03;;;;;;;;;;;20.90;90.30;;;;;;5093983;28;20266;-71
2023/08/06 02:59:28;;;;;;;;;;;20.90;90.30;;;;;;5092630;28;19908;-72
2023/08/06 03:01:54;;;;;;;;;;;20.90;90.40;;;;;;5093573;28;19908;-72
2023/08/06 03:04:19;;;;;;;;;;;20.90;90.30;;;;;;5093786;28;19919;-72
2023/08/06 03:06:45;;;;;;;;;;;21.00;90.40;;;;;;5093520;28;19999;-72
2023/08/06 03:09:10;;;;;;;;;;;20.90;90.30;;;;;;5095589;28;19931;-72
2023/08/06 03:11:36;;;;;;;;;;;20.90;90.30;;;;;;5097650;28;19913;-71
2023/08/06 03:14:01;;;;;;;;;;;20.90;90.30;;;;;;5097054;28;19912;-71
2023/08/06 03:16:27;;;;;;;;;;;20.90;90.40;;;;;;5097140;28;20351;-72
2023/08/06 03:18:52;;;;;;;;;;;20.90;90.30;;;;;;5097514;28;19914;-72
2023/08/06 03:21:18;;;;;;;;;;;20.90;90.30;;;;;;5096110;28;19919;-72
2023/08/06 03:23:46;;;;;;;;;;;20.90;90.30;;;;;;5097067;28;19915;-72
2023/08/06 03:26:11;;;;;;;;;;;20.90;90.30;;;;;;5096943;28;20297;-72
2023/08/06 03:28:37;;;;;;;;;;;20.90;90.30;;;;;;5097500;28;19908;-72
2023/08/06 03:31:03;;;;;;;;;;;20.90;90.30;;;;;;5097071;28;20411;-71
2023/08/06 03:33:29;;;;;;;;;;;20.90;90.30;;;;;;5096706;28;19912;-72
2023/08/06 03:35:54;;;;;;;;;;;20.90;90.30;;;;;;5096980;28;19954;-72
2023/08/06 03:38:20;;;;;;;;;;;20.90;90.30;;;;;;5097054;28;19951;-72
2023/08/06 03:40:46;;;;;;;;;;;20.90;90.30;;;;;;5096962;28;19915;-72
2023/08/06 03:43:11;;;;;;;;;;;20.90;90.30;;;;;;5096916;28;19908;-71
2023/08/06 03:45:37;;;;;;;;;;;20.90;90.30;;;;;;5096940;28;20353;-71
2023/08/06 03:48:02;;;;;;;;;;;20.90;90.30;;;;;;5096594;28;19908;-71
2023/08/06 03:50:28;;;;;;;;;;;20.90;90.30;;;;;;5096574;28;19995;-71
2023/08/06 03:52:53;;;;;;;;;;;20.90;90.30;;;;;;5096401;28;19912;-71
2023/08/06 03:55:19;;;;;;;;;;;20.90;90.30;;;;;;5096376;28;19916;-72
2023/08/06 03:57:44;;;;;;;;;;;20.90;90.20;;;;;;5096580;28;20028;-71
2023/08/06 04:00:10;;;;;;;;;;;20.90;90.20;;;;;;5096577;28;19961;-71
2023/08/06 04:02:35;;;;;;;;;;;20.90;90.20;;;;;;5096484;28;19914;-71
2023/08/06 04:05:01;;;;;;;;;;;20.90;90.20;;;;;;5096501;28;19915;-72
2023/08/06 04:07:26;;;;;;;;;;;20.90;90.20;;;;;;5096413;28;19908;-71
2023/08/06 04:09:56;;;;;;;;;;;20.90;90.20;;;;;;5096435;28;19916;-71
2023/08/06 04:12:21;;;;;;;;;;;20.90;90.30;;;;;;5096129;28;19912;-71
2023/08/06 04:14:47;;;;;;;;;;;20.90;90.30;;;;;;5096524;28;19919;-71
2023/08/06 04:17:12;;;;;;;;;;;20.90;90.30;;;;;;5096348;28;20357;-71
2023/08/06 04:19:38;;;;;;;;;;;20.90;90.30;;;;;;5095409;28;19912;-71
2023/08/06 04:22:03;;;;;;;;;;;20.90;90.30;;;;;;5096085;28;19989;-71
2023/08/06 04:24:29;;;;;;;;;;;20.90;90.30;;;;;;5095866;28;19916;-71
2023/08/06 04:26:54;;;;;;;;;;;20.80;90.20;;;;;;5096078;28;19908;-71
2023/08/06 04:29:20;;;;;;;;;;;20.90;90.30;;;;;;5096068;28;19913;-72
2023/08/06 04:31:45;;;;;;;;;;;20.80;90.20;;;;;;5095970;28;19908;-71
2023/08/06 04:34:11;;;;;;;;;;;20.90;90.30;;;;;;5095629;28;19973;-71
2023/08/06 04:36:38;;;;;;;;;;;20.80;90.20;;;;;;5095851;28;20014;-71
2023/08/06 04:39:04;;;;;;;;;;;20.90;90.30;;;;;;5094192;28;19912;-71
2023/08/06 04:41:29;;;;;;;;;;;20.80;90.20;;;;;;5095790;28;20011;-71
2023/08/06 04:43:56;;;;;;;;;;;20.80;90.20;;;;;;5095451;28;19909;-71
2023/08/06 04:46:22;;;;;;;;;;;20.80;90.20;;;;;;5095648;28;19921;-71
2023/08/06 04:48:47;;;;;;;;;;;20.80;90.30;;;;;;5095320;28;19931;-72
2023/08/06 04:51:13;;;;;;;;;;;20.80;90.30;;;;;;5095643;28;20266;-71
2023/08/06 04:53:38;;;;;;;;;;;20.80;90.30;;;;;;5095525;28;19974;-71
2023/08/06 04:56:04;;;;;;;;;;;20.80;90.20;;;;;;5095567;28;19951;-70
2023/08/06 04:58:29;;;;;;;;;;;20.80;90.30;;;;;;5095318;28;20346;-71
2023/08/06 05:00:54;;;;;;;;;;;20.80;90.30;;;;;;5095154;28;19908;-72
2023/08/06 05:03:20;;;;;;;;;;;20.80;90.30;;;;;;5094153;28;19931;-71
2023/08/06 05:05:46;;;;;;;;;;;20.80;90.30;;;;;;5095241;28;20382;-71
2023/08/06 05:08:18;;;;;;;;;;;20.80;90.30;;;;;;5094957;28;19915;-71
2023/08/06 05:10:44;;;;;;;;;;;20.80;90.30;;;;;;5094744;28;20343;-71
2023/08/06 05:13:10;;;;;;;;;;;20.80;90.30;;;;;;5095095;28;19989;-71
2023/08/06 05:15:35;;;;;;;;;;;20.80;90.30;;;;;;5095102;28;19918;-71
2023/08/06 05:18:00;;;;;;;;;;;20.80;90.30;;;;;;5094897;28;19912;-71
2023/08/06 05:20:26;;;;;;;;;;;20.80;90.30;;;;;;5095065;28;19954;-71
2023/08/06 05:22:51;;;;;;;;;;;20.80;90.30;;;;;;5095364;28;19915;-71
2023/08/06 05:25:17;;;;;;;;;;;20.80;90.30;;;;;;5095299;28;20006;-71
2023/08/06 05:27:42;;;;;;;;;;;20.80;90.30;;;;;;5093827;28;19915;-71
2023/08/06 05:30:08;;;;;;;;;;;20.80;90.30;;;;;;5094969;28;20373;-71
2023/08/06 05:32:34;;;;;;;;;;;20.80;90.30;;;;;;5094446;28;19919;-69
2023/08/06 05:34:59;;;;;;;;;;;20.80;90.30;;;;;;5094672;28;20003;-71
2023/08/06 05:37:25;;;;;;;;;;;20.80;90.30;;;;;;5094698;28;19909;-71
2023/08/06 05:39:50;;;;;;;;;;;20.80;90.30;;;;;;5095046;28;20343;-71
2023/08/06 05:42:16;;;;;;;;;;;20.80;90.30;;;;;;5094729;28;19908;-71
2023/08/06 05:44:41;;;;;;;;;;;20.80;90.30;;;;;;5094089;28;20014;-71
2023/08/06 05:47:07;;;;;;;;;;;20.80;90.30;;;;;;5094264;28;20000;-71
2023/08/06 05:49:32;;;;;;;;;;;20.80;90.30;;;;;;5094614;28;19909;-71
2023/08/06 05:51:58;;;;;;;;;;;20.80;90.30;;;;;;5094446;28;19912;-71
2023/08/06 05:54:23;;;;;;;;;;;20.80;90.30;;;;;;5094473;28;19938;-71
2023/08/06 05:56:48;;;;;;;;;;;20.80;90.30;;;;;;5094866;28;19979;-71
2023/08/06 05:59:14;;;;;;;;;;;20.70;90.30;;;;;;5094775;28;19969;-71
2023/08/06 06:01:39;;;;;;;;;;;20.70;90.30;;;;;;5094438;28;19912;-71
2023/08/06 06:04:05;;;;;;;;;;;20.70;90.30;;;;;;5094017;28;20360;-72
2023/08/06 06:06:30;;;;;;;;;;;20.70;90.30;;;;;;5094326;28;19994;-72
2023/08/06 06:08:56;;;;;;;;;;;20.70;90.30;;;;;;5094342;28;19915;-72
2023/08/06 06:11:22;;;;;;;;;;;20.70;90.30;;;;;;5093988;28;19908;-72
2023/08/06 06:13:51;;;;;;;;;;;20.70;90.30;;;;;;5094086;28;20376;-72
2023/08/06 06:16:16;;;;;;;;;;;20.70;90.30;;;;;;5094228;28;20398;-72
2023/08/06 06:18:41;;;;;;;;;;;20.70;90.20;;;;;;5093958;28;19997;-72
2023/08/06 06:21:07;;;;;;;;;;;20.70;90.20;;;;;;5093878;28;19912;-72
2023/08/06 06:23:33;;;;;;;;;;;20.70;90.20;;;;;;5094293;28;19908;-72
2023/08/06 06:25:59;;;;;;;;;;;20.70;90.20;;;;;;5094433;28;20360;-72
2023/08/06 06:28:24;;;;;;;;;;;20.70;90.20;;;;;;5094141;28;20122;-72
2023/08/06 06:30:51;;;;;;;;;;;20.70;90.20;;;;;;5094052;28;20002;-72
2023/08/06 06:33:16;;;;;;;;;;;20.70;90.20;;;;;;5093646;28;19947;-72
2023/08/06 06:35:42;;;;;;;;;;;20.70;90.20;;;;;;5094343;28;19935;-71
2023/08/06 06:38:07;;;;;;;;;;;20.70;90.20;;;;;;5094341;28;19912;-71
2023/08/06 06:40:33;;;;;;;;;;;20.70;90.20;;;;;;5093687;28;19912;-72
2023/08/06 06:42:58;;;;;;;;;;;20.70;90.20;;;;;;5094014;28;19916;-72
2023/08/06 06:45:24;;;;;;;;;;;20.70;90.20;;;;;;5097789;28;20332;-72
2023/08/06 06:47:49;;;;;;;;;;;20.70;90.20;;;;;;5097673;28;19913;-72
2023/08/06 06:50:15;;;;;;;;;;;20.70;90.20;;;;;;5097906;28;19909;-72
2023/08/06 06:52:41;;;;;;;;;;;20.70;90.20;;;;;;5097795;28;19912;-71
2023/08/06 06:55:06;;;;;;;;;;;20.70;90.20;;;;;;5097796;28;20003;-71
2023/08/06 06:57:32;;;;;;;;;;;20.70;90.20;;;;;;5097351;28;19915;-72
2023/08/06 06:59:57;;;;;;;;;;;20.70;90.20;;;;;;5097426;28;19915;-72
2023/08/06 07:02:23;;;;;;;;;;;20.70;90.20;;;;;;5097314;28;19998;-72
2023/08/06 07:04:49;;;;;;;;;;;20.70;90.20;;;;;;5097656;28;19912;-72
2023/08/06 07:07:15;;;;;;;;;;;20.70;90.20;;;;;;5097587;28;19908;-72
2023/08/06 07:09:40;;;;;;;;;;;20.70;90.20;;;;;;5096069;28;19908;-73
2023/08/06 07:12:06;;;;;;;;;;;20.70;90.20;;;;;;5097028;28;19908;-71
2023/08/06 07:14:31;;;;;;;;;;;20.70;90.20;;;;;;5097328;28;19912;-72
2023/08/06 07:16:57;;;;;;;;;;;20.70;90.20;;;;;;5097051;28;19953;-72
2023/08/06 07:19:23;;;;;;;;;;;20.70;90.20;;;;;;5096153;28;19915;-72
2023/08/06 07:21:48;;;;;;;;;;;20.70;90.20;;;;;;5097076;28;19976;-72
2023/08/06 07:24:14;;;;;;;;;;;20.70;90.20;;;;;;5097633;28;19915;-71
2023/08/06 07:26:39;;;;;;;;;;;20.70;90.20;;;;;;5097269;28;20263;-72
2023/08/06 07:29:04;;;;;;;;;;;20.70;90.20;;;;;;5095832;28;20390;-72
2023/08/06 07:31:30;;;;;;;;;;;20.70;90.10;;;;;;5096631;28;19991;-72
2023/08/06 07:33:55;;;;;;;;;;;20.70;90.10;;;;;;5095504;28;19912;-72
2023/08/06 07:36:21;;;;;;;;;;;20.70;90.10;;;;;;5096825;28;20355;-72
2023/08/06 07:38:48;;;;;;;;;;;20.70;90.10;;;;;;5096568;28;20244;-72
2023/08/06 07:41:14;;;;;;;;;;;20.70;90.10;;;;;;5096659;28;20318;-72
2023/08/06 07:43:39;;;;;;;;;;;20.70;90.10;;;;;;5096911;28;19918;-72
2023/08/06 07:46:05;;;;;;;;;;;20.70;90.10;;;;;;5096950;28;19973;-72
2023/08/06 07:48:31;;;;;;;;;;;20.70;90.10;;;;;;5096473;28;20291;-72
2023/08/06 07:50:57;;;;;;;;;;;20.70;90.10;;;;;;5096261;28;19908;-72
2023/08/06 07:53:23;;;;;;;;;;;20.70;90.10;;;;;;5096257;28;19916;-72
2023/08/06 07:55:58;;;;;;;;;;;20.70;90.10;;;;;;5095291;28;19912;-72
2023/08/06 07:58:24;;;;;;;;;;;20.70;90.10;;;;;;5096628;28;19961;-72
2023/08/06 08:00:50;;;;;;;;;;;20.70;90.10;;;;;;5096587;28;19919;-72
2023/08/06 08:03:16;;;;;;;;;;;20.70;90.10;;;;;;5096197;28;19908;-73
2023/08/06 08:05:42;;;;;;;;;;;20.70;90.10;;;;;;5095018;28;19916;-74
2023/08/06 08:08:07;;;;;;;;;;;20.70;90.10;;;;;;5096155;28;19912;-72
2023/08/06 08:10:34;;;;;;;;;;;20.70;90.10;;;;;;5096146;28;20351;-74
2023/08/06 08:13:02;;;;;;;;;;;20.70;90.10;;;;;;5095908;28;20102;-73
2023/08/06 08:15:32;;;;;;;;;;;20.70;90.10;;;;;;5096146;28;19919;-73
2023/08/06 08:17:58;;;;;;;;;;;20.70;90.10;;;;;;5095936;28;19915;-73
2023/08/06 08:20:23;;;;;;;;;;;20.70;90.10;;;;;;5095857;28;19911;-73
2023/08/06 08:22:49;;;;;;;;;;;20.70;90.10;;;;;;5095532;28;20002;-73
2023/08/06 08:25:15;;;;;;;;;;;20.70;90.10;;;;;;5095737;28;19908;-73
2023/08/06 08:27:40;;;;;;;;;;;20.70;90.00;;;;;;5096065;28;19919;-73
2023/08/06 08:30:06;;;;;;;;;;;20.70;90.30;;;;;;5095580;28;19908;-72
2023/08/06 08:32:31;;;;;;;;;;;20.70;90.00;;;;;;5095818;28;19919;-73
2023/08/06 08:34:57;;;;;;;;;;;20.70;90.00;;;;;;5095744;28;20370;-72
2023/08/06 08:37:23;;;;;;;;;;;20.70;90.00;;;;;;5095516;28;19930;-72
2023/08/06 08:39:48;;;;;;;;;;;20.70;90.00;;;;;;5095540;28;19915;-72
2023/08/06 08:42:14;;;;;;;;;;;20.70;90.00;;;;;;5095706;28;20359;-74
2023/08/06 08:44:40;;;;;;;;;;;20.70;90.00;;;;;;5095521;28;19963;-70
2023/08/06 08:47:06;;;;;;;;;;;20.70;90.00;;;;;;5095603;28;19908;-72
2023/08/06 08:49:32;;;;;;;;;;;20.70;90.00;;;;;;5094285;28;19916;-72
2023/08/06 08:51:59;;;;;;;;;;;20.70;90.00;;;;;;5095614;28;19908;-72
2023/08/06 08:54:25;;;;;;;;;;;20.70;89.90;;;;;;5095317;28;20278;-72
2023/08/06 08:56:50;;;;;;;;;;;20.70;89.80;;;;;;5095055;28;20007;-73
2023/08/06 08:59:16;;;;;;;;;;;20.70;89.80;;;;;;5095295;28;19977;-71
2023/08/06 09:01:42;;;;;;;;;;;20.70;89.80;;;;;;5095181;28;20014;-70
2023/08/06 09:04:08;;;;;;;;;;;20.70;89.80;;;;;;5095048;28;19912;-69
2023/08/06 09:06:35;;;;;;;;;;;20.70;89.80;;;;;;5094784;28;19962;-70
2023/08/06 09:09:05;;;;;;;;;;;20.70;89.80;;;;;;5095041;28;19912;-70
2023/08/06 09:11:39;;;;;;;;;;;20.70;90.10;;;;;;5094944;28;20374;-70
2023/08/06 09:14:06;;;;;;;;;;;20.70;89.80;;;;;;5095123;28;19913;-69
2023/08/06 09:16:33;;;;;;;;;;;20.70;89.80;;;;;;5095006;28;19918;-70
2023/08/06 09:19:06;;;;;;;;;;;20.70;89.90;;;;;;5094765;28;19960;-69
2023/08/06 09:21:32;;;;;;;;;;;20.70;89.80;;;;;;5094852;28;19962;-72
2023/08/06 09:23:58;;;;;;;;;;;20.70;89.80;;;;;;5093552;28;20359;-70
2023/08/06 09:26:24;;;;;;;;;;;20.70;89.80;;;;;;5094427;28;20355;-70
2023/08/06 09:28:52;;;;;;;;;;;20.70;89.80;;;;;;5094355;28;19988;-70
2023/08/06 09:31:17;;;;;;;;;;;20.70;89.80;;;;;;5094444;28;19951;-70
2023/08/06 09:33:44;;;;;;;;;;;20.70;89.80;;;;;;5094498;28;19974;-70
2023/08/06 09:36:10;;;;;;;;;;;20.70;89.80;;;;;;5094735;28;19959;-71
2023/08/06 09:38:42;;;;;;;;;;;20.70;89.70;;;;;;5094545;28;20408;-71
2023/08/06 09:41:08;;;;;;;;;;;20.70;89.80;;;;;;5094720;28;19912;-70
2023/08/06 09:43:43;;;;;;;;;;;20.70;89.70;;;;;;5094706;28;19915;-70
2023/08/06 09:46:13;;;;;;;;;;;20.70;89.70;;;;;;5094074;28;20010;-70
2023/08/06 09:48:38;;;;;;;;;;;20.70;89.60;;;;;;5094410;28;19908;-70
2023/08/06 09:51:05;;;;;;;;;;;20.70;89.60;;;;;;5094621;28;19961;-70
2023/08/06 09:53:33;;;;;;;;;;;20.70;89.60;;;;;;5094269;28;20454;-71
2023/08/06 09:55:59;;;;;;;;;;;20.70;89.50;;;;;;5094452;28;19912;-70
2023/08/06 09:58:24;;;;;;;;;;;20.70;89.60;;;;;;5094512;28;19909;-71
2023/08/06 10:00:50;;;;;;;;;;;20.70;89.60;;;;;;5094383;28;19934;-70
2023/08/06 10:03:17;;;;;;;;;;;20.70;89.50;;;;;;5094069;28;19999;-72
2023/08/06 10:05:44;;;;;;;;;;;20.60;89.00;;;;;;5094232;28;19916;-71
2023/08/06 10:08:09;;;;;;;;;;;20.60;88.80;;;;;;5093944;28;19908;-70
2023/08/06 10:10:35;;;;;;;;;;;20.60;89.10;;;;;;5094489;28;19908;-72
2023/08/06 10:13:01;;;;;;;;;;;20.60;89.20;;;;;;5093883;28;20354;-72
2023/08/06 10:15:27;;;;;;;;;;;20.60;89.10;;;;;;5094274;28;19912;-73
2023/08/06 10:17:54;;;;;;;;;;;20.60;89.10;;;;;;5093572;28;19908;-72
2023/08/06 10:20:22;;;;;;;;;;;20.60;89.20;;;;;;5094204;28;19939;-72
2023/08/06 10:23:04;;;;;;;;;;;20.70;89.30;;;;;;5094028;28;19915;-72
2023/08/06 10:25:34;;;;;;;;;;;20.60;89.30;;;;;;5094136;28;19969;-72
2023/08/06 10:27:59;;;;;;;;;;;20.60;89.30;;;;;;5093797;28;20340;-72
2023/08/06 10:30:32;;;;;;;;;;;20.60;89.30;;;;;;5093995;28;19915;-72
2023/08/06 10:32:57;;;;;;;;;;;20.60;89.30;;;;;;5094016;28;19952;-70
2023/08/06 10:35:44;;;;;;;;;;;20.60;89.30;;;;;;5093823;28;19951;-71
2023/08/06 10:38:11;;;;;;;;;;;20.60;89.30;;;;;;5093989;28;19912;-70
2023/08/06 10:40:37;;;;;;;;;;;20.60;89.40;;;;;;5094012;28;19908;-71
2023/08/06 10:43:03;;;;;;;;;;;20.60;89.40;;;;;;5092621;28;20003;-71
2023/08/06 10:45:30;;;;;;;;;;;20.60;89.40;;;;;;5093442;28;19927;-71
2023/08/06 10:47:59;;;;;;;;;;;20.60;89.40;;;;;;5093552;28;19908;-71
2023/08/06 10:50:24;;;;;;;;;;;20.60;89.30;;;;;;5093915;28;20323;-71
2023/08/06 10:52:50;;;;;;;;;;;20.60;89.30;;;;;;5093927;28;19955;-71
2023/08/06 10:55:22;;;;;;;;;;;20.60;89.80;;;;;;5093479;28;19912;-71
2023/08/06 10:57:48;;;;;;;;;;;20.60;89.90;;;;;;5093796;28;20036;-71
2023/08/06 11:00:14;;;;;;;;;;;20.60;89.30;;;;;;5093657;28;19969;-71
2023/08/06 11:02:39;;;;;;;;;;;20.60;89.30;;;;;;5093351;28;19908;-71
2023/08/06 11:05:08;;;;;;;;;;;20.60;89.30;;;;;;5093496;28;19955;-71
2023/08/06 11:07:34;;;;;;;;;;;20.60;89.30;;;;;;5093753;28;19916;-71
2023/08/06 11:10:03;;;;;;;;;;;20.60;89.30;;;;;;5093454;28;19915;-71
2023/08/06 11:12:29;;;;;;;;;;;20.60;89.30;;;;;;5093487;28;19924;-71
2023/08/06 11:14:55;;;;;;;;;;;20.60;89.30;;;;;;5092352;28;20001;-71
2023/08/06 11:17:21;;;;;;;;;;;20.60;89.30;;;;;;5093542;28;19913;-71
2023/08/06 11:19:46;;;;;;;;;;;20.60;89.30;;;;;;5093225;28;19908;-71
2023/08/06 11:22:14;;;;;;;;;;;20.60;89.30;;;;;;5093526;28;20271;-71
2023/08/06 11:24:39;;;;;;;;;;;20.60;89.30;;;;;;5093514;28;20309;-71
2023/08/06 11:27:11;;;;;;;;;;;20.60;89.20;;;;;;5093106;28;19913;-71
2023/08/06 11:29:37;;;;;;;;;;;20.60;89.20;;;;;;5094572;28;19908;-71
2023/08/06 11:32:03;;;;;;;;;;;20.60;89.20;;;;;;5096769;28;19916;-71
2023/08/06 11:34:29;;;;;;;;;;;20.60;89.20;;;;;;5096405;28;20272;-71
2023/08/06 11:36:56;;;;;;;;;;;20.60;89.20;;;;;;5096680;28;19920;-71
2023/08/06 11:39:22;;;;;;;;;;;20.60;89.30;;;;;;5096819;28;19908;-71
2023/08/06 11:41:48;;;;;;;;;;;20.60;89.20;;;;;;5096976;28;19909;-71
2023/08/06 11:44:13;;;;;;;;;;;20.60;89.70;;;;;;5096192;28;19943;-71
2023/08/06 11:46:55;;;;;;;;;;;20.60;89.20;;;;;;5096773;28;19915;-71
2023/08/06 11:49:44;;;;;;;;;;;20.60;89.20;;;;;;5096442;28;19908;-71
2023/08/06 11:52:23;;;;;;;;;;;20.60;89.20;;;;;;5095295;28;19909;-72
2023/08/06 11:55:01;;;;;;;;;;;20.60;89.10;;;;;;5096285;28;19977;-71
2023/08/06 11:57:28;;;;;;;;;;;20.60;89.20;;;;;;5096598;28;19915;-71
2023/08/06 11:59:54;;;;;;;;;;;20.60;89.10;;;;;;5096630;28;19908;-71
2023/08/06 12:02:23;;;;;;;;;;;20.60;89.10;;;;;;5096365;28;20497;-71
2023/08/06 12:05:05;;;;;;;;;;;20.60;89.10;;;;;;5096374;28;19908;-70
2023/08/06 12:07:36;;;;;;;;;;;20.60;89.10;;;;;;5096082;28;19916;-71
2023/08/06 12:10:01;;;;;;;;;;;20.60;89.10;;;;;;5094811;28;19908;-71
2023/08/06 12:12:27;;;;;;;;;;;20.60;89.10;;;;;;5096346;28;19961;-71
2023/08/06 12:14:53;;;;;;;;;;;20.60;89.10;;;;;;5095910;28;19912;-71
2023/08/06 12:17:19;;;;;;;;;;;20.60;89.60;;;;;;5096627;28;20019;-71
2023/08/06 12:19:46;;;;;;;;;;;20.60;89.10;;;;;;5096078;28;19916;-71
2023/08/06 12:22:13;;;;;;;;;;;20.60;89.10;;;;;;5096159;28;19908;-71
2023/08/06 12:24:38;;;;;;;;;;;20.60;89.10;;;;;;5095965;28;19908;-72
2023/08/06 12:27:04;;;;;;;;;;;20.60;89.10;;;;;;5095693;28;19908;-72
2023/08/06 12:29:31;;;;;;;;;;;20.60;89.10;;;;;;5095718;28;20047;-72
2023/08/06 12:31:56;;;;;;;;;;;20.60;89.10;;;;;;5095586;28;19912;-71
2023/08/06 12:34:22;;;;;;;;;;;20.60;89.10;;;;;;5095256;28;20373;-71
2023/08/06 12:36:47;;;;;;;;;;;20.60;89.10;;;;;;5095706;28;19912;-72
2023/08/06 12:39:13;;;;;;;;;;;20.60;89.10;;;;;;5095774;28;19915;-71
2023/08/06 12:41:38;;;;;;;;;;;20.60;89.10;;;;;;5095003;28;20347;-72
2023/08/06 12:44:04;;;;;;;;;;;20.60;89.10;;;;;;5095374;28;20010;-71
2023/08/06 12:46:29;;;;;;;;;;;20.60;89.10;;;;;;5095381;28;19912;-72
2023/08/06 12:48:57;;;;;;;;;;;20.60;89.10;;;;;;5095028;28;20389;-72
2023/08/06 12:51:23;;;;;;;;;;;20.60;89.10;;;;;;5094974;28;19911;-72
2023/08/06 12:53:48;;;;;;;;;;;20.60;89.10;;;;;;5094987;28;19912;-71
2023/08/06 12:56:16;;;;;;;;;;;20.60;89.10;;;;;;5093773;28;20292;-71
2023/08/06 12:58:42;;;;;;;;;;;20.60;89.10;;;;;;5094864;28;19954;-72
2023/08/06 13:01:07;;;;;;;;;;;20.60;89.00;;;;;;5094360;28;19912;-72
2023/08/06 13:03:33;;;;;;;;;;;20.60;89.10;;;;;;5094385;28;19914;-72
2023/08/06 13:05:59;;;;;;;;;;;20.60;89.00;;;;;;5094327;28;19915;-71
2023/08/06 13:08:24;;;;;;;;;;;20.60;89.00;;;;;;5094434;28;20266;-71
2023/08/06 13:10:50;;;;;;;;;;;20.60;89.00;;;;;;5094323;28;19912;-72
2023/08/06 13:13:15;;;;;;;;;;;20.60;89.10;;;;;;5094256;28;19912;-71
2023/08/06 13:15:41;;;;;;;;;;;20.60;89.10;;;;;;5094533;28;19969;-71
2023/08/06 13:18:06;;;;;;;;;;;20.60;89.10;;;;;;5094325;28;20263;-72
2023/08/06 13:20:32;;;;;;;;;;;20.60;89.10;;;;;;5094534;28;19953;-71
2023/08/06 13:22:58;;;;;;;;;;;20.60;89.10;;;;;;5094746;28;19908;-71
2023/08/06 13:25:23;;;;;;;;;;;20.60;89.00;;;;;;5094417;28;20396;-72
2023/08/06 13:27:50;;;;;;;;;;;20.60;89.10;;;;;;5094441;28;19943;-72
2023/08/06 13:30:16;;;;;;;;;;;20.60;89.60;;;;;;5094673;28;19908;-72
2023/08/06 13:32:41;;;;;;;;;;;20.60;89.00;;;;;;5094757;28;19912;-72
2023/08/06 13:35:07;;;;;;;;;;;20.60;89.00;;;;;;5094216;28;19923;-71
2023/08/06 13:37:32;;;;;;;;;;;20.60;89.10;;;;;;5094409;28;20333;-72
2023/08/06 13:39:58;;;;;;;;;;;20.60;89.00;;;;;;5094222;28;19908;-72
2023/08/06 13:42:23;;;;;;;;;;;20.60;89.00;;;;;;5094286;28;19917;-72
2023/08/06 13:44:49;;;;;;;;;;;20.60;89.00;;;;;;5094002;28;20015;-72
2023/08/06 13:47:14;;;;;;;;;;;20.60;89.00;;;;;;5094175;28;19920;-71
2023/08/06 13:49:40;;;;;;;;;;;20.60;89.00;;;;;;5094262;28;19962;-72
2023/08/06 13:52:05;;;;;;;;;;;20.60;89.00;;;;;;5094251;28;19947;-71
2023/08/06 13:54:31;;;;;;;;;;;20.60;89.00;;;;;;5093741;28;19973;-72
2023/08/06 13:56:56;;;;;;;;;;;20.60;88.90;;;;;;5094329;28;19919;-72
2023/08/06 13:59:24;;;;;;;;;;;20.60;89.00;;;;;;5094086;28;20321;-72
2023/08/06 14:01:49;;;;;;;;;;;20.60;89.00;;;;;;5094296;28;19931;-71
2023/08/06 14:04:15;;;;;;;;;;;20.60;89.00;;;;;;5094204;28;20347;-72
2023/08/06 14:06:40;;;;;;;;;;;20.60;89.00;;;;;;5094553;28;19923;-72
2023/08/06 14:09:06;;;;;;;;;;;20.60;89.00;;;;;;5093872;28;19912;-72
2023/08/06 14:11:31;;;;;;;;;;;20.60;89.00;;;;;;5094248;28;19908;-72